Kezdőlap
METAR-TAF:

METAR-TAF

Repülőterek :

Macomb Municipal Airport

Macomb, Illinois, Amerikai Egyesült Államok

földrajzi szélesség: 40-31-13N, földrajzi hosszúság: 090-39-09W, magasság: 216 m

Jelenlegi meteorológiai megfigyelések

A jelentés 16 perccel ezelõtt készült, 16:55 UTC
Északnyugati szél 13 kt széllökések: 21 kt
Hőmérséklet 14°C
Páratartalom 55%
Légköri nyomás 1021 hPa
Látótávolság: 16.1 km
Szórványos felhőzet 4000 lábon
Borult 6000 lábon

METAR: KMQB 011655Z AUTO 32013G21KT 10SM SCT040 OVC060 14/05 A3014 RMK AO2 T01420051 TSNO

Idő: 12:11 (17:11 UTC)


TAF: hiányzik

Meteorológiai megfigyelések és előrejelzések több, mint 4000 repülőtéren (METAR és TAF jelentéseket).

A térképen piros és sárga pontok jelzik az elérhető meteorológiai állomásokat.

Mozgassa az egeret a pont fölött, hogy megjelenjen az állomás neve.

Azután kattintson az időjárási megfigyelések és előrejelzések megtekintéséhez.

A térkép megváltoztatása: kattintson a fekete keresztel jelölt zöld gombra ráközelítéshez, a vonallal jelölt zöld gombra távolításhoz, vagy a zöld nyilakra a szomszédos térképek eléréséhez.


METAR-TAF: